sensor_id;sensor_type;location;lat;lon;timestamp;P1;durP1;ratioP1;P2;durP2;ratioP2
14396;SDS011;50653;47.810;13.022;2024-02-28T00:01:23;5.50;;;5.10;;
14396;SDS011;50653;47.810;13.022;2024-02-28T00:03:49;5.57;;;5.17;;
14396;SDS011;50653;47.810;13.022;2024-02-28T00:06:17;5.83;;;4.80;;
14396;SDS011;50653;47.810;13.022;2024-02-28T00:08:43;5.67;;;5.27;;
14396;SDS011;50653;47.810;13.022;2024-02-28T00:11:09;5.40;;;5.00;;
14396;SDS011;50653;47.810;13.022;2024-02-28T00:13:35;6.17;;;5.57;;
14396;SDS011;50653;47.810;13.022;2024-02-28T00:16:00;5.10;;;4.73;;
14396;SDS011;50653;47.810;13.022;2024-02-28T00:18:26;6.47;;;5.97;;
14396;SDS011;50653;47.810;13.022;2024-02-28T00:20:52;6.77;;;6.23;;
14396;SDS011;50653;47.810;13.022;2024-02-28T00:23:19;6.30;;;5.73;;
14396;SDS011;50653;47.810;13.022;2024-02-28T00:25:45;6.17;;;5.63;;
14396;SDS011;50653;47.810;13.022;2024-02-28T00:28:11;6.30;;;5.77;;
14396;SDS011;50653;47.810;13.022;2024-02-28T00:30:37;5.07;;;4.77;;
14396;SDS011;50653;47.810;13.022;2024-02-28T00:33:02;6.03;;;5.63;;
14396;SDS011;50653;47.810;13.022;2024-02-28T00:35:32;5.23;;;4.90;;
14396;SDS011;50653;47.810;13.022;2024-02-28T00:37:58;5.20;;;4.80;;
14396;SDS011;50653;47.810;13.022;2024-02-28T00:40:24;5.87;;;5.30;;
14396;SDS011;50653;47.810;13.022;2024-02-28T00:42:50;7.57;;;6.83;;
14396;SDS011;50653;47.810;13.022;2024-02-28T00:45:16;5.97;;;5.47;;
14396;SDS011;50653;47.810;13.022;2024-02-28T00:47:42;5.97;;;5.57;;
14396;SDS011;50653;47.810;13.022;2024-02-28T00:50:09;8.10;;;6.23;;
14396;SDS011;50653;47.810;13.022;2024-02-28T00:52:36;6.37;;;5.87;;
14396;SDS011;50653;47.810;13.022;2024-02-28T00:55:02;8.20;;;7.40;;
14396;SDS011;50653;47.810;13.022;2024-02-28T00:57:30;7.87;;;6.57;;
14396;SDS011;50653;47.810;13.022;2024-02-28T00:59:56;7.23;;;6.60;;
14396;SDS011;50653;47.810;13.022;2024-02-28T01:02:22;6.60;;;6.00;;
14396;SDS011;50653;47.810;13.022;2024-02-28T01:04:48;6.73;;;6.13;;
14396;SDS011;50653;47.810;13.022;2024-02-28T01:07:14;5.97;;;5.57;;
14396;SDS011;50653;47.810;13.022;2024-02-28T01:09:39;6.07;;;5.63;;
14396;SDS011;50653;47.810;13.022;2024-02-28T01:12:05;8.40;;;6.50;;
14396;SDS011;50653;47.810;13.022;2024-02-28T01:14:31;7.63;;;6.20;;
14396;SDS011;50653;47.810;13.022;2024-02-28T01:16:56;5.07;;;4.80;;
14396;SDS011;50653;47.810;13.022;2024-02-28T01:19:22;5.00;;;4.53;;
14396;SDS011;50653;47.810;13.022;2024-02-28T01:21:48;6.67;;;6.13;;
14396;SDS011;50653;47.810;13.022;2024-02-28T01:24:13;5.77;;;5.33;;
14396;SDS011;50653;47.810;13.022;2024-02-28T01:26:39;7.23;;;5.83;;
14396;SDS011;50653;47.810;13.022;2024-02-28T01:29:06;5.53;;;4.80;;
14396;SDS011;50653;47.810;13.022;2024-02-28T01:31:32;4.87;;;4.40;;
14396;SDS011;50653;47.810;13.022;2024-02-28T01:33:57;5.57;;;5.27;;
14396;SDS011;50653;47.810;13.022;2024-02-28T01:36:23;5.03;;;4.70;;
14396;SDS011;50653;47.810;13.022;2024-02-28T01:38:49;4.50;;;4.10;;
14396;SDS011;50653;47.810;13.022;2024-02-28T01:41:14;5.20;;;4.90;;
14396;SDS011;50653;47.810;13.022;2024-02-28T01:43:40;6.43;;;5.93;;
14396;SDS011;50653;47.810;13.022;2024-02-28T01:46:09;7.60;;;5.90;;
14396;SDS011;50653;47.810;13.022;2024-02-28T01:48:50;6.27;;;5.70;;
14396;SDS011;50653;47.810;13.022;2024-02-28T01:51:17;8.70;;;7.20;;
14396;SDS011;50653;47.810;13.022;2024-02-28T01:53:44;8.33;;;7.63;;
14396;SDS011;50653;47.810;13.022;2024-02-28T01:56:11;8.07;;;7.30;;
14396;SDS011;50653;47.810;13.022;2024-02-28T01:58:39;5.90;;;5.40;;
14396;SDS011;50653;47.810;13.022;2024-02-28T02:01:05;6.77;;;5.70;;
14396;SDS011;50653;47.810;13.022;2024-02-28T02:03:32;6.23;;;5.63;;
14396;SDS011;50653;47.810;13.022;2024-02-28T02:06:00;6.20;;;5.60;;
14396;SDS011;50653;47.810;13.022;2024-02-28T02:08:27;5.43;;;5.03;;
14396;SDS011;50653;47.810;13.022;2024-02-28T02:10:53;5.40;;;5.00;;
14396;SDS011;50653;47.810;13.022;2024-02-28T02:13:18;5.73;;;5.33;;
14396;SDS011;50653;47.810;13.022;2024-02-28T02:15:44;5.00;;;4.53;;
14396;SDS011;50653;47.810;13.022;2024-02-28T02:18:10;6.40;;;5.57;;
14396;SDS011;50653;47.810;13.022;2024-02-28T02:20:36;5.20;;;4.80;;
14396;SDS011;50653;47.810;13.022;2024-02-28T02:23:06;6.03;;;5.43;;
14396;SDS011;50653;47.810;13.022;2024-02-28T02:25:31;5.67;;;5.17;;
14396;SDS011;50653;47.810;13.022;2024-02-28T02:27:57;6.07;;;5.57;;
14396;SDS011;50653;47.810;13.022;2024-02-28T02:30:23;6.00;;;5.47;;
14396;SDS011;50653;47.810;13.022;2024-02-28T02:32:49;7.70;;;6.70;;
14396;SDS011;50653;47.810;13.022;2024-02-28T02:35:14;6.87;;;6.17;;
14396;SDS011;50653;47.810;13.022;2024-02-28T02:37:43;6.40;;;5.93;;
14396;SDS011;50653;47.810;13.022;2024-02-28T02:40:15;6.37;;;5.80;;
14396;SDS011;50653;47.810;13.022;2024-02-28T02:42:40;6.53;;;6.00;;
14396;SDS011;50653;47.810;13.022;2024-02-28T02:45:06;8.80;;;8.10;;
14396;SDS011;50653;47.810;13.022;2024-02-28T02:47:32;7.63;;;7.03;;
14396;SDS011;50653;47.810;13.022;2024-02-28T02:49:58;7.13;;;5.77;;
14396;SDS011;50653;47.810;13.022;2024-02-28T02:52:23;6.30;;;5.80;;
14396;SDS011;50653;47.810;13.022;2024-02-28T02:54:49;6.17;;;5.67;;
14396;SDS011;50653;47.810;13.022;2024-02-28T02:57:15;8.87;;;5.60;;
14396;SDS011;50653;47.810;13.022;2024-02-28T02:59:40;6.97;;;6.10;;
14396;SDS011;50653;47.810;13.022;2024-02-28T03:16:54;5.93;;;5.57;;
14396;SDS011;50653;47.810;13.022;2024-02-28T03:19:20;7.60;;;6.73;;
14396;SDS011;50653;47.810;13.022;2024-02-28T03:21:46;9.40;;;8.03;;
14396;SDS011;50653;47.810;13.022;2024-02-28T03:24:11;8.30;;;7.50;;
14396;SDS011;50653;47.810;13.022;2024-02-28T03:26:37;9.53;;;8.10;;
14396;SDS011;50653;47.810;13.022;2024-02-28T03:29:03;8.07;;;7.27;;
14396;SDS011;50653;47.810;13.022;2024-02-28T03:31:28;9.03;;;8.00;;
14396;SDS011;50653;47.810;13.022;2024-02-28T03:33:54;9.27;;;8.33;;
14396;SDS011;50653;47.810;13.022;2024-02-28T03:36:20;8.80;;;7.90;;
14396;SDS011;50653;47.810;13.022;2024-02-28T03:38:46;8.73;;;7.50;;
14396;SDS011;50653;47.810;13.022;2024-02-28T03:41:11;8.40;;;7.70;;
14396;SDS011;50653;47.810;13.022;2024-02-28T03:43:37;7.57;;;6.87;;
14396;SDS011;50653;47.810;13.022;2024-02-28T03:46:03;7.23;;;6.63;;
14396;SDS011;50653;47.810;13.022;2024-02-28T03:48:28;7.40;;;6.80;;
14396;SDS011;50653;47.810;13.022;2024-02-28T03:50:54;6.37;;;5.80;;
14396;SDS011;50653;47.810;13.022;2024-02-28T03:53:20;5.50;;;5.00;;
14396;SDS011;50653;47.810;13.022;2024-02-28T03:55:45;6.87;;;6.10;;
14396;SDS011;50653;47.810;13.022;2024-02-28T03:58:11;8.17;;;5.77;;
14396;SDS011;50653;47.810;13.022;2024-02-28T04:00:37;6.07;;;5.30;;
14396;SDS011;50653;47.810;13.022;2024-02-28T04:03:04;6.60;;;5.97;;
14396;SDS011;50653;47.810;13.022;2024-02-28T04:05:30;7.00;;;6.27;;
14396;SDS011;50653;47.810;13.022;2024-02-28T04:07:56;6.70;;;6.13;;
14396;SDS011;50653;47.810;13.022;2024-02-28T04:10:22;7.43;;;6.67;;
14396;SDS011;50653;47.810;13.022;2024-02-28T04:12:48;6.70;;;6.00;;
14396;SDS011;50653;47.810;13.022;2024-02-28T04:15:14;6.80;;;6.27;;
14396;SDS011;50653;47.810;13.022;2024-02-28T04:17:40;10.70;;;6.70;;
14396;SDS011;50653;47.810;13.022;2024-02-28T04:20:09;6.87;;;6.33;;
14396;SDS011;50653;47.810;13.022;2024-02-28T04:22:35;7.30;;;6.50;;
14396;SDS011;50653;47.810;13.022;2024-02-28T04:25:01;8.63;;;7.17;;
14396;SDS011;50653;47.810;13.022;2024-02-28T04:27:28;6.93;;;6.33;;
14396;SDS011;50653;47.810;13.022;2024-02-28T04:29:54;8.97;;;8.03;;
14396;SDS011;50653;47.810;13.022;2024-02-28T04:32:19;7.93;;;7.17;;
14396;SDS011;50653;47.810;13.022;2024-02-28T04:34:45;7.03;;;6.53;;
14396;SDS011;50653;47.810;13.022;2024-02-28T04:37:11;6.77;;;6.20;;
14396;SDS011;50653;47.810;13.022;2024-02-28T04:39:36;6.27;;;5.67;;
14396;SDS011;50653;47.810;13.022;2024-02-28T04:42:02;6.57;;;5.87;;
14396;SDS011;50653;47.810;13.022;2024-02-28T04:44:28;6.30;;;5.80;;
14396;SDS011;50653;47.810;13.022;2024-02-28T04:46:53;7.10;;;5.70;;
14396;SDS011;50653;47.810;13.022;2024-02-28T04:49:19;7.00;;;5.60;;
14396;SDS011;50653;47.810;13.022;2024-02-28T04:51:45;6.27;;;5.77;;
14396;SDS011;50653;47.810;13.022;2024-02-28T04:54:11;9.40;;;7.87;;
14396;SDS011;50653;47.810;13.022;2024-02-28T04:56:42;9.43;;;7.30;;
14396;SDS011;50653;47.810;13.022;2024-02-28T04:59:09;8.93;;;8.03;;
14396;SDS011;50653;47.810;13.022;2024-02-28T05:01:36;5.87;;;5.47;;
14396;SDS011;50653;47.810;13.022;2024-02-28T05:04:07;8.07;;;7.30;;
14396;SDS011;50653;47.810;13.022;2024-02-28T05:06:33;9.60;;;7.37;;
14396;SDS011;50653;47.810;13.022;2024-02-28T05:08:59;9.33;;;6.70;;
14396;SDS011;50653;47.810;13.022;2024-02-28T05:11:25;6.40;;;5.90;;
14396;SDS011;50653;47.810;13.022;2024-02-28T05:13:50;7.00;;;6.10;;
14396;SDS011;50653;47.810;13.022;2024-02-28T05:16:16;6.77;;;6.07;;
14396;SDS011;50653;47.810;13.022;2024-02-28T05:18:43;6.90;;;6.30;;
14396;SDS011;50653;47.810;13.022;2024-02-28T05:21:10;9.63;;;7.43;;
14396;SDS011;50653;47.810;13.022;2024-02-28T05:23:36;8.60;;;7.73;;
14396;SDS011;50653;47.810;13.022;2024-02-28T05:26:02;11.37;;;8.23;;
14396;SDS011;50653;47.810;13.022;2024-02-28T05:28:29;8.10;;;6.60;;
14396;SDS011;50653;47.810;13.022;2024-02-28T05:30:56;9.00;;;6.93;;
14396;SDS011;50653;47.810;13.022;2024-02-28T05:33:22;7.27;;;6.57;;
14396;SDS011;50653;47.810;13.022;2024-02-28T05:35:47;7.07;;;6.40;;
14396;SDS011;50653;47.810;13.022;2024-02-28T05:38:13;7.13;;;6.43;;
14396;SDS011;50653;47.810;13.022;2024-02-28T05:40:40;6.90;;;6.33;;
14396;SDS011;50653;47.810;13.022;2024-02-28T05:43:06;6.70;;;6.10;;
14396;SDS011;50653;47.810;13.022;2024-02-28T05:45:32;5.67;;;5.20;;
14396;SDS011;50653;47.810;13.022;2024-02-28T05:47:58;8.43;;;7.70;;
14396;SDS011;50653;47.810;13.022;2024-02-28T05:50:24;8.77;;;7.30;;
14396;SDS011;50653;47.810;13.022;2024-02-28T05:52:50;9.23;;;8.30;;
14396;SDS011;50653;47.810;13.022;2024-02-28T05:55:16;9.67;;;8.40;;
14396;SDS011;50653;47.810;13.022;2024-02-28T05:57:42;10.40;;;8.60;;
14396;SDS011;50653;47.810;13.022;2024-02-28T06:00:08;9.23;;;7.30;;
14396;SDS011;50653;47.810;13.022;2024-02-28T06:02:39;10.73;;;8.17;;
14396;SDS011;50653;47.810;13.022;2024-02-28T06:05:05;7.13;;;6.53;;
14396;SDS011;50653;47.810;13.022;2024-02-28T06:07:31;8.57;;;7.67;;
14396;SDS011;50653;47.810;13.022;2024-02-28T06:09:57;7.87;;;7.03;;
14396;SDS011;50653;47.810;13.022;2024-02-28T06:12:23;9.07;;;7.10;;
14396;SDS011;50653;47.810;13.022;2024-02-28T06:14:49;7.97;;;7.23;;
14396;SDS011;50653;47.810;13.022;2024-02-28T06:17:14;11.03;;;9.50;;
14396;SDS011;50653;47.810;13.022;2024-02-28T06:19:40;8.73;;;7.80;;
14396;SDS011;50653;47.810;13.022;2024-02-28T06:22:06;8.03;;;7.23;;
14396;SDS011;50653;47.810;13.022;2024-02-28T06:24:35;8.87;;;8.13;;
14396;SDS011;50653;47.810;13.022;2024-02-28T06:27:01;8.47;;;7.67;;
14396;SDS011;50653;47.810;13.022;2024-02-28T06:29:27;5.73;;;5.23;;
14396;SDS011;50653;47.810;13.022;2024-02-28T06:31:53;7.40;;;6.70;;
14396;SDS011;50653;47.810;13.022;2024-02-28T06:34:20;5.80;;;5.33;;
14396;SDS011;50653;47.810;13.022;2024-02-28T06:36:47;5.40;;;4.93;;
14396;SDS011;50653;47.810;13.022;2024-02-28T06:39:13;6.80;;;6.17;;
14396;SDS011;50653;47.810;13.022;2024-02-28T06:41:40;5.80;;;5.27;;
14396;SDS011;50653;47.810;13.022;2024-02-28T06:44:06;6.83;;;5.20;;
14396;SDS011;50653;47.810;13.022;2024-02-28T06:46:32;5.57;;;5.17;;
14396;SDS011;50653;47.810;13.022;2024-02-28T06:48:58;6.23;;;5.70;;
14396;SDS011;50653;47.810;13.022;2024-02-28T06:51:24;7.07;;;6.20;;
14396;SDS011;50653;47.810;13.022;2024-02-28T06:53:49;5.77;;;5.30;;
14396;SDS011;50653;47.810;13.022;2024-02-28T06:56:15;6.27;;;5.37;;
14396;SDS011;50653;47.810;13.022;2024-02-28T06:58:41;5.50;;;5.03;;
14396;SDS011;50653;47.810;13.022;2024-02-28T07:01:06;5.07;;;4.73;;
14396;SDS011;50653;47.810;13.022;2024-02-28T07:03:32;6.43;;;5.97;;
14396;SDS011;50653;47.810;13.022;2024-02-28T07:05:58;5.10;;;4.50;;
14396;SDS011;50653;47.810;13.022;2024-02-28T07:08:24;6.13;;;5.60;;
14396;SDS011;50653;47.810;13.022;2024-02-28T07:10:49;6.60;;;6.00;;
14396;SDS011;50653;47.810;13.022;2024-02-28T07:13:19;5.53;;;5.13;;
14396;SDS011;50653;47.810;13.022;2024-02-28T07:15:45;5.87;;;5.33;;
14396;SDS011;50653;47.810;13.022;2024-02-28T07:18:12;7.47;;;6.70;;
14396;SDS011;50653;47.810;13.022;2024-02-28T07:20:38;7.27;;;5.97;;
14396;SDS011;50653;47.810;13.022;2024-02-28T07:23:04;7.73;;;6.10;;
14396;SDS011;50653;47.810;13.022;2024-02-28T07:25:29;6.30;;;5.00;;
14396;SDS011;50653;47.810;13.022;2024-02-28T07:27:57;6.37;;;5.77;;
14396;SDS011;50653;47.810;13.022;2024-02-28T07:30:24;5.07;;;4.73;;
14396;SDS011;50653;47.810;13.022;2024-02-28T07:32:50;7.23;;;6.50;;
14396;SDS011;50653;47.810;13.022;2024-02-28T07:35:15;6.67;;;6.07;;
14396;SDS011;50653;47.810;13.022;2024-02-28T07:37:41;5.57;;;5.17;;
14396;SDS011;50653;47.810;13.022;2024-02-28T07:40:07;5.63;;;5.13;;
14396;SDS011;50653;47.810;13.022;2024-02-28T07:42:33;5.83;;;5.47;;
14396;SDS011;50653;47.810;13.022;2024-02-28T07:45:00;5.60;;;5.10;;
14396;SDS011;50653;47.810;13.022;2024-02-28T07:47:26;4.50;;;4.20;;
14396;SDS011;50653;47.810;13.022;2024-02-28T07:49:51;5.67;;;5.17;;
14396;SDS011;50653;47.810;13.022;2024-02-28T07:52:18;4.20;;;3.90;;
14396;SDS011;50653;47.810;13.022;2024-02-28T07:54:44;5.47;;;5.00;;
14396;SDS011;50653;47.810;13.022;2024-02-28T07:57:11;4.40;;;4.10;;
14396;SDS011;50653;47.810;13.022;2024-02-28T07:59:40;5.07;;;4.67;;
14396;SDS011;50653;47.810;13.022;2024-02-28T08:02:07;5.60;;;5.17;;
14396;SDS011;50653;47.810;13.022;2024-02-28T08:04:33;5.97;;;5.40;;
14396;SDS011;50653;47.810;13.022;2024-02-28T08:06:59;6.27;;;5.77;;
14396;SDS011;50653;47.810;13.022;2024-02-28T08:09:25;5.30;;;4.90;;
14396;SDS011;50653;47.810;13.022;2024-02-28T08:11:51;7.20;;;6.50;;
14396;SDS011;50653;47.810;13.022;2024-02-28T08:14:16;7.03;;;6.20;;
14396;SDS011;50653;47.810;13.022;2024-02-28T08:16:42;4.93;;;4.53;;
14396;SDS011;50653;47.810;13.022;2024-02-28T08:19:08;6.10;;;5.70;;
14396;SDS011;50653;47.810;13.022;2024-02-28T08:21:34;6.07;;;5.50;;
14396;SDS011;50653;47.810;13.022;2024-02-28T08:24:00;5.03;;;4.63;;
14396;SDS011;50653;47.810;13.022;2024-02-28T08:26:29;5.23;;;4.83;;
14396;SDS011;50653;47.810;13.022;2024-02-28T08:28:55;6.37;;;5.67;;
14396;SDS011;50653;47.810;13.022;2024-02-28T08:31:21;5.90;;;5.43;;
14396;SDS011;50653;47.810;13.022;2024-02-28T08:33:47;6.40;;;5.20;;
14396;SDS011;50653;47.810;13.022;2024-02-28T08:36:13;5.47;;;5.07;;
14396;SDS011;50653;47.810;13.022;2024-02-28T08:38:40;6.87;;;5.50;;
14396;SDS011;50653;47.810;13.022;2024-02-28T08:41:06;5.23;;;4.90;;
14396;SDS011;50653;47.810;13.022;2024-02-28T08:43:33;7.33;;;6.63;;
14396;SDS011;50653;47.810;13.022;2024-02-28T08:46:02;7.17;;;6.23;;
14396;SDS011;50653;47.810;13.022;2024-02-28T08:48:28;6.17;;;5.57;;
14396;SDS011;50653;47.810;13.022;2024-02-28T08:50:54;7.03;;;6.30;;
14396;SDS011;50653;47.810;13.022;2024-02-28T08:53:20;10.43;;;6.67;;
14396;SDS011;50653;47.810;13.022;2024-02-28T08:55:45;6.10;;;5.60;;
14396;SDS011;50653;47.810;13.022;2024-02-28T08:58:11;5.80;;;5.40;;
14396;SDS011;50653;47.810;13.022;2024-02-28T09:00:37;5.90;;;5.23;;
14396;SDS011;50653;47.810;13.022;2024-02-28T09:03:03;5.57;;;5.07;;
14396;SDS011;50653;47.810;13.022;2024-02-28T09:05:29;7.27;;;6.20;;
14396;SDS011;50653;47.810;13.022;2024-02-28T09:07:55;6.43;;;5.77;;
14396;SDS011;50653;47.810;13.022;2024-02-28T09:10:22;7.17;;;6.67;;
14396;SDS011;50653;47.810;13.022;2024-02-28T09:12:51;6.83;;;6.27;;
14396;SDS011;50653;47.810;13.022;2024-02-28T09:15:17;6.30;;;5.73;;
14396;SDS011;50653;47.810;13.022;2024-02-28T09:17:43;8.27;;;7.47;;
14396;SDS011;50653;47.810;13.022;2024-02-28T09:20:09;7.30;;;6.70;;
14396;SDS011;50653;47.810;13.022;2024-02-28T09:22:36;6.20;;;5.70;;
14396;SDS011;50653;47.810;13.022;2024-02-28T09:25:02;6.60;;;6.10;;
14396;SDS011;50653;47.810;13.022;2024-02-28T09:27:29;6.57;;;5.97;;
14396;SDS011;50653;47.810;13.022;2024-02-28T09:29:55;9.00;;;7.00;;
14396;SDS011;50653;47.810;13.022;2024-02-28T09:32:21;5.57;;;5.03;;
14396;SDS011;50653;47.810;13.022;2024-02-28T09:34:48;7.10;;;5.77;;
14396;SDS011;50653;47.810;13.022;2024-02-28T09:37:14;7.90;;;6.40;;
14396;SDS011;50653;47.810;13.022;2024-02-28T09:39:43;6.60;;;6.00;;
14396;SDS011;50653;47.810;13.022;2024-02-28T09:42:09;8.00;;;7.20;;
14396;SDS011;50653;47.810;13.022;2024-02-28T09:44:36;7.53;;;6.93;;
14396;SDS011;50653;47.810;13.022;2024-02-28T09:47:02;6.67;;;6.10;;
14396;SDS011;50653;47.810;13.022;2024-02-28T09:49:28;6.53;;;6.00;;
14396;SDS011;50653;47.810;13.022;2024-02-28T09:51:57;7.27;;;6.57;;
14396;SDS011;50653;47.810;13.022;2024-02-28T09:54:24;6.07;;;5.57;;
14396;SDS011;50653;47.810;13.022;2024-02-28T09:56:50;7.80;;;5.30;;
14396;SDS011;50653;47.810;13.022;2024-02-28T09:59:19;5.80;;;5.30;;
14396;SDS011;50653;47.810;13.022;2024-02-28T10:01:47;7.97;;;7.27;;
14396;SDS011;50653;47.810;13.022;2024-02-28T10:04:34;7.77;;;6.30;;
14396;SDS011;50653;47.810;13.022;2024-02-28T10:07:11;8.17;;;7.37;;
14396;SDS011;50653;47.810;13.022;2024-02-28T10:09:40;7.17;;;6.40;;
14396;SDS011;50653;47.810;13.022;2024-02-28T10:12:06;6.47;;;5.87;;
14396;SDS011;50653;47.810;13.022;2024-02-28T10:14:32;6.37;;;5.83;;
14396;SDS011;50653;47.810;13.022;2024-02-28T10:16:59;8.10;;;7.50;;
14396;SDS011;50653;47.810;13.022;2024-02-28T10:19:25;8.10;;;7.40;;
14396;SDS011;50653;47.810;13.022;2024-02-28T10:21:50;8.00;;;7.20;;
14396;SDS011;50653;47.810;13.022;2024-02-28T10:24:16;6.80;;;6.10;;
14396;SDS011;50653;47.810;13.022;2024-02-28T10:26:43;7.80;;;7.20;;
14396;SDS011;50653;47.810;13.022;2024-02-28T10:29:22;8.03;;;5.90;;
14396;SDS011;50653;47.810;13.022;2024-02-28T10:31:48;8.20;;;6.53;;
14396;SDS011;50653;47.810;13.022;2024-02-28T10:34:16;5.40;;;4.93;;
14396;SDS011;50653;47.810;13.022;2024-02-28T10:36:43;9.30;;;7.70;;
14396;SDS011;50653;47.810;13.022;2024-02-28T10:39:10;6.27;;;5.77;;
14396;SDS011;50653;47.810;13.022;2024-02-28T10:41:38;6.40;;;5.87;;
14396;SDS011;50653;47.810;13.022;2024-02-28T10:44:04;7.20;;;5.97;;
14396;SDS011;50653;47.810;13.022;2024-02-28T10:46:30;4.87;;;4.47;;
14396;SDS011;50653;47.810;13.022;2024-02-28T10:48:57;10.83;;;8.40;;
14396;SDS011;50653;47.810;13.022;2024-02-28T10:51:23;10.33;;;8.47;;
14396;SDS011;50653;47.810;13.022;2024-02-28T10:54:06;10.37;;;9.20;;
14396;SDS011;50653;47.810;13.022;2024-02-28T10:56:39;12.10;;;9.80;;
14396;SDS011;50653;47.810;13.022;2024-02-28T10:59:06;13.60;;;10.30;;
14396;SDS011;50653;47.810;13.022;2024-02-28T11:01:36;14.53;;;10.90;;
14396;SDS011;50653;47.810;13.022;2024-02-28T11:04:04;13.17;;;8.90;;
14396;SDS011;50653;47.810;13.022;2024-02-28T11:06:30;11.83;;;9.33;;
14396;SDS011;50653;47.810;13.022;2024-02-28T11:08:58;9.13;;;8.33;;
14396;SDS011;50653;47.810;13.022;2024-02-28T11:11:29;8.57;;;7.40;;
14396;SDS011;50653;47.810;13.022;2024-02-28T11:13:59;14.47;;;10.03;;
14396;SDS011;50653;47.810;13.022;2024-02-28T11:16:31;20.77;;;13.37;;
14396;SDS011;50653;47.810;13.022;2024-02-28T11:18:58;17.40;;;13.23;;
14396;SDS011;50653;47.810;13.022;2024-02-28T11:21:24;16.30;;;12.50;;
14396;SDS011;50653;47.810;13.022;2024-02-28T11:23:51;19.20;;;13.97;;
14396;SDS011;50653;47.810;13.022;2024-02-28T11:26:17;18.43;;;13.63;;
14396;SDS011;50653;47.810;13.022;2024-02-28T11:28:43;18.07;;;13.97;;
14396;SDS011;50653;47.810;13.022;2024-02-28T11:31:09;21.57;;;13.97;;
14396;SDS011;50653;47.810;13.022;2024-02-28T11:33:36;20.17;;;14.90;;
14396;SDS011;50653;47.810;13.022;2024-02-28T11:36:02;21.67;;;14.00;;
14396;SDS011;50653;47.810;13.022;2024-02-28T11:38:28;18.50;;;12.80;;
14396;SDS011;50653;47.810;13.022;2024-02-28T11:40:54;19.00;;;13.07;;
14396;SDS011;50653;47.810;13.022;2024-02-28T11:43:20;20.97;;;14.17;;
14396;SDS011;50653;47.810;13.022;2024-02-28T11:45:46;19.13;;;14.40;;
14396;SDS011;50653;47.810;13.022;2024-02-28T11:48:13;21.07;;;15.73;;
14396;SDS011;50653;47.810;13.022;2024-02-28T11:50:39;20.97;;;17.47;;
14396;SDS011;50653;47.810;13.022;2024-02-28T11:53:08;38.40;;;16.53;;
14396;SDS011;50653;47.810;13.022;2024-02-28T11:55:34;22.20;;;16.20;;
14396;SDS011;50653;47.810;13.022;2024-02-28T11:58:01;24.53;;;16.53;;
14396;SDS011;50653;47.810;13.022;2024-02-28T12:00:27;21.17;;;14.53;;
14396;SDS011;50653;47.810;13.022;2024-02-28T12:02:52;11.87;;;10.70;;
14396;SDS011;50653;47.810;13.022;2024-02-28T12:05:29;16.20;;;11.50;;
14396;SDS011;50653;47.810;13.022;2024-02-28T12:07:54;16.63;;;11.93;;
14396;SDS011;50653;47.810;13.022;2024-02-28T12:10:20;12.67;;;10.40;;
14396;SDS011;50653;47.810;13.022;2024-02-28T12:12:47;16.37;;;11.93;;
14396;SDS011;50653;47.810;13.022;2024-02-28T12:15:15;13.37;;;10.83;;
14396;SDS011;50653;47.810;13.022;2024-02-28T12:17:42;18.57;;;14.20;;
14396;SDS011;50653;47.810;13.022;2024-02-28T12:20:08;24.87;;;15.43;;
14396;SDS011;50653;47.810;13.022;2024-02-28T12:22:34;15.33;;;11.67;;
14396;SDS011;50653;47.810;13.022;2024-02-28T12:25:00;23.30;;;16.17;;
14396;SDS011;50653;47.810;13.022;2024-02-28T12:27:29;25.00;;;15.53;;
14396;SDS011;50653;47.810;13.022;2024-02-28T12:29:56;21.27;;;14.50;;
14396;SDS011;50653;47.810;13.022;2024-02-28T12:32:22;19.13;;;13.83;;
14396;SDS011;50653;47.810;13.022;2024-02-28T12:34:47;18.27;;;12.97;;
14396;SDS011;50653;47.810;13.022;2024-02-28T12:37:13;20.53;;;15.43;;
14396;SDS011;50653;47.810;13.022;2024-02-28T12:39:39;24.00;;;17.10;;
14396;SDS011;50653;47.810;13.022;2024-02-28T12:42:05;24.83;;;17.10;;
14396;SDS011;50653;47.810;13.022;2024-02-28T12:44:32;26.70;;;15.37;;
14396;SDS011;50653;47.810;13.022;2024-02-28T12:46:58;18.13;;;13.50;;
14396;SDS011;50653;47.810;13.022;2024-02-28T12:49:23;18.90;;;13.20;;
14396;SDS011;50653;47.810;13.022;2024-02-28T12:51:49;20.13;;;13.10;;
14396;SDS011;50653;47.810;13.022;2024-02-28T12:54:16;17.67;;;12.87;;
14396;SDS011;50653;47.810;13.022;2024-02-28T12:56:44;20.97;;;14.30;;
14396;SDS011;50653;47.810;13.022;2024-02-28T12:59:10;21.83;;;14.70;;
14396;SDS011;50653;47.810;13.022;2024-02-28T13:01:37;28.63;;;19.47;;
14396;SDS011;50653;47.810;13.022;2024-02-28T13:04:03;36.83;;;21.43;;
14396;SDS011;50653;47.810;13.022;2024-02-28T13:06:29;29.43;;;19.40;;
14396;SDS011;50653;47.810;13.022;2024-02-28T13:08:54;32.33;;;19.40;;
14396;SDS011;50653;47.810;13.022;2024-02-28T13:11:23;33.30;;;19.57;;
14396;SDS011;50653;47.810;13.022;2024-02-28T13:13:50;24.80;;;18.03;;
14396;SDS011;50653;47.810;13.022;2024-02-28T13:16:17;25.73;;;16.00;;
14396;SDS011;50653;47.810;13.022;2024-02-28T13:18:43;30.33;;;17.00;;
14396;SDS011;50653;47.810;13.022;2024-02-28T13:21:09;24.83;;;14.53;;
14396;SDS011;50653;47.810;13.022;2024-02-28T13:23:36;24.00;;;16.10;;
14396;SDS011;50653;47.810;13.022;2024-02-28T13:26:03;22.13;;;15.40;;
14396;SDS011;50653;47.810;13.022;2024-02-28T13:28:32;26.33;;;16.07;;
14396;SDS011;50653;47.810;13.022;2024-02-28T13:30:58;22.10;;;15.20;;
14396;SDS011;50653;47.810;13.022;2024-02-28T13:33:25;23.00;;;14.07;;
14396;SDS011;50653;47.810;13.022;2024-02-28T13:35:52;25.80;;;16.67;;
14396;SDS011;50653;47.810;13.022;2024-02-28T13:38:18;27.50;;;14.87;;
14396;SDS011;50653;47.810;13.022;2024-02-28T13:40:48;28.57;;;16.23;;
14396;SDS011;50653;47.810;13.022;2024-02-28T13:43:15;28.80;;;17.00;;
14396;SDS011;50653;47.810;13.022;2024-02-28T13:45:46;24.50;;;17.57;;
14396;SDS011;50653;47.810;13.022;2024-02-28T13:48:20;21.97;;;16.80;;
14396;SDS011;50653;47.810;13.022;2024-02-28T13:50:49;26.33;;;16.17;;
14396;SDS011;50653;47.810;13.022;2024-02-28T13:53:15;25.40;;;17.00;;
14396;SDS011;50653;47.810;13.022;2024-02-28T13:55:44;23.03;;;16.43;;
14396;SDS011;50653;47.810;13.022;2024-02-28T13:58:14;19.63;;;13.90;;
14396;SDS011;50653;47.810;13.022;2024-02-28T14:00:46;19.70;;;13.40;;
14396;SDS011;50653;47.810;13.022;2024-02-28T14:03:12;21.80;;;13.33;;
14396;SDS011;50653;47.810;13.022;2024-02-28T14:05:38;21.17;;;13.63;;
14396;SDS011;50653;47.810;13.022;2024-02-28T14:08:04;25.00;;;16.37;;
14396;SDS011;50653;47.810;13.022;2024-02-28T14:10:33;23.07;;;15.97;;
14396;SDS011;50653;47.810;13.022;2024-02-28T14:12:59;29.40;;;15.73;;
14396;SDS011;50653;47.810;13.022;2024-02-28T14:15:25;17.60;;;13.73;;
14396;SDS011;50653;47.810;13.022;2024-02-28T14:17:51;17.17;;;13.60;;
14396;SDS011;50653;47.810;13.022;2024-02-28T14:20:16;21.53;;;13.87;;
14396;SDS011;50653;47.810;13.022;2024-02-28T14:22:43;15.47;;;12.23;;
14396;SDS011;50653;47.810;13.022;2024-02-28T14:25:12;22.83;;;14.90;;
14396;SDS011;50653;47.810;13.022;2024-02-28T14:27:39;27.10;;;17.40;;
14396;SDS011;50653;47.810;13.022;2024-02-28T14:30:06;26.47;;;16.43;;
14396;SDS011;50653;47.810;13.022;2024-02-28T14:32:34;31.03;;;20.30;;
14396;SDS011;50653;47.810;13.022;2024-02-28T14:35:01;38.07;;;19.70;;
14396;SDS011;50653;47.810;13.022;2024-02-28T14:37:26;25.63;;;16.80;;
14396;SDS011;50653;47.810;13.022;2024-02-28T14:39:53;25.17;;;15.77;;